Terminal Aerodrome Forecast
Issued by NWS

Home | Current Version | Previous Version | Text Only | Print | Product List | Glossary On
Versions: 1 2 3 4 5 6 7 8 9 10 11 12 13 14 15 16
000
FTAK31 PAJN 292300
TAFAYA
TAF
PAYA 292325Z 3000/3024 14006KT P6SM -SHRA SCT015 OVC035
      TEMPO 3000/3004 5SM SHRA BR BKN015
     FM300400 09006KT P6SM -SHRA SCT015 OVC030
     FM301000 08005KT P6SM VCSH OVC030
      AMD LTD TO CLD VIS AND WIND 3001/3010=

USA.gov is the U.S. government's official web portal to all federal, state and local government web resources and services.